createdAt,value
2023-04-09T00:00:17.757Z,21.17
2023-04-09T00:02:44.889Z,20.43
2023-04-09T00:05:12.040Z,20.70
2023-04-09T00:07:39.063Z,20.53
2023-04-09T00:10:07.622Z,21.43
2023-04-09T00:12:34.844Z,21.27
2023-04-09T00:15:01.957Z,20.27
2023-04-09T00:17:28.908Z,21.73
2023-04-09T00:19:56.287Z,21.37
2023-04-09T00:22:23.310Z,23.03
2023-04-09T00:24:50.403Z,23.73
2023-04-09T00:27:17.626Z,23.00
2023-04-09T00:29:44.592Z,21.40
2023-04-09T00:32:11.588Z,21.53
2023-04-09T00:34:38.933Z,24.07
2023-04-09T00:37:06.423Z,21.37
2023-04-09T00:39:34.273Z,21.27
2023-04-09T00:42:03.073Z,20.93
2023-04-09T00:44:30.432Z,21.63
2023-04-09T00:47:00.832Z,19.90
2023-04-09T00:49:28.163Z,21.63
2023-04-09T00:51:55.358Z,21.07
2023-04-09T00:54:22.740Z,19.83
2023-04-09T00:56:49.742Z,20.77
2023-04-09T00:59:16.888Z,20.77
2023-04-09T01:01:44.003Z,19.73
2023-04-09T01:04:11.408Z,21.93
2023-04-09T01:06:59.229Z,21.90
2023-04-09T01:09:36.721Z,20.80
2023-04-09T01:12:24.111Z,18.93
2023-04-09T01:15:00.450Z,19.20
2023-04-09T01:17:46.454Z,20.73
2023-04-09T01:21:13.248Z,20.93
2023-04-09T01:23:41.013Z,21.40
2023-04-09T01:26:22.557Z,20.27
2023-04-09T01:28:56.101Z,18.33
2023-04-09T01:31:34.247Z,18.33
2023-04-09T01:34:02.640Z,18.20
2023-04-09T01:36:32.502Z,19.70
2023-04-09T01:39:02.490Z,17.03
2023-04-09T01:41:33.968Z,16.90
2023-04-09T01:44:03.957Z,18.10
2023-04-09T01:46:33.497Z,20.57
2023-04-09T01:49:01.697Z,19.60
2023-04-09T01:51:31.630Z,21.13
2023-04-09T01:54:00.447Z,21.23
2023-04-09T01:56:27.462Z,20.27
2023-04-09T01:58:54.867Z,20.00
2023-04-09T02:01:38.804Z,19.23
2023-04-09T02:04:17.940Z,19.77
2023-04-09T02:07:18.236Z,19.07
2023-04-09T02:09:47.890Z,20.50
2023-04-09T02:12:19.605Z,19.70
2023-04-09T02:14:50.493Z,21.27
2023-04-09T02:17:17.867Z,20.57
2023-04-09T02:19:47.864Z,21.13
2023-04-09T02:22:16.707Z,20.90
2023-04-09T02:24:44.341Z,19.83
2023-04-09T02:27:11.345Z,18.87
2023-04-09T02:29:40.985Z,18.37
2023-04-09T02:32:08.567Z,18.20
2023-04-09T02:34:35.600Z,17.23
2023-04-09T02:37:02.728Z,16.97
2023-04-09T02:39:29.669Z,17.37
2023-04-09T02:41:57.935Z,17.30
2023-04-09T02:44:24.991Z,18.80
2023-04-09T02:46:52.742Z,18.00
2023-04-09T02:49:19.940Z,17.03
2023-04-09T02:51:46.921Z,16.77
2023-04-09T02:54:13.847Z,17.73
2023-04-09T02:56:40.852Z,16.73
2023-04-09T02:59:07.827Z,15.27
2023-04-09T03:01:35.252Z,17.50
2023-04-09T03:04:02.580Z,15.27
2023-04-09T03:06:29.711Z,15.63
2023-04-09T03:08:56.714Z,15.93
2023-04-09T03:11:24.024Z,13.87
2023-04-09T03:13:50.984Z,14.97
2023-04-09T03:16:18.008Z,15.63
2023-04-09T03:18:44.983Z,18.03
2023-04-09T03:21:14.726Z,26.60
2023-04-09T03:23:42.061Z,22.63
2023-04-09T03:26:09.052Z,21.97
2023-04-09T03:28:36.186Z,22.30
2023-04-09T03:31:03.223Z,19.37
2023-04-09T03:33:30.240Z,17.87
2023-04-09T03:35:57.272Z,19.00
2023-04-09T03:38:24.415Z,17.43
2023-04-09T03:40:51.375Z,21.07
2023-04-09T03:43:18.352Z,19.00
2023-04-09T03:45:45.717Z,21.43
2023-04-09T03:48:12.738Z,23.10
2023-04-09T03:50:42.749Z,25.13
2023-04-09T03:53:09.714Z,23.70
2023-04-09T03:55:38.025Z,23.70
2023-04-09T03:58:05.119Z,23.23
2023-04-09T04:00:32.059Z,23.43
2023-04-09T04:02:59.216Z,21.17
2023-04-09T04:05:26.800Z,21.43
2023-04-09T04:07:53.876Z,22.20
2023-04-09T04:10:21.187Z,20.77
2023-04-09T04:12:48.243Z,18.80
2023-04-09T04:15:15.587Z,18.33
2023-04-09T04:17:42.625Z,18.60
2023-04-09T04:20:10.299Z,19.30
2023-04-09T04:22:37.693Z,19.53
2023-04-09T04:25:05.686Z,19.70
2023-04-09T04:27:32.656Z,19.97
2023-04-09T04:30:00.361Z,19.63
2023-04-09T04:32:27.489Z,19.67
2023-04-09T04:34:54.990Z,17.73
2023-04-09T04:37:21.994Z,18.27
2023-04-09T04:39:49.038Z,18.33
2023-04-09T04:42:16.732Z,19.90
2023-04-09T04:44:44.685Z,20.63
2023-04-09T04:47:11.824Z,20.23
2023-04-09T04:49:38.781Z,20.50
2023-04-09T04:52:07.603Z,21.67
2023-04-09T04:54:34.670Z,23.03
2023-04-09T04:57:01.730Z,23.40
2023-04-09T04:59:28.970Z,22.77
2023-04-09T05:01:56.255Z,22.90
2023-04-09T05:04:23.460Z,21.63
2023-04-09T05:06:50.642Z,22.63
2023-04-09T05:09:17.639Z,22.67
2023-04-09T05:11:44.634Z,21.90
2023-04-09T05:14:13.243Z,22.37
2023-04-09T05:16:40.510Z,22.23
2023-04-09T05:19:07.831Z,21.00
2023-04-09T05:21:34.877Z,21.33
2023-04-09T05:24:02.448Z,21.60
2023-04-09T05:26:29.934Z,21.70
2023-04-09T05:28:56.973Z,21.30
2023-04-09T05:31:24.215Z,22.03
2023-04-09T05:33:51.172Z,21.50
2023-04-09T05:36:19.217Z,21.83
2023-04-09T05:38:49.363Z,22.37
2023-04-09T05:41:16.350Z,24.33
2023-04-09T05:43:43.408Z,24.37
2023-04-09T05:46:10.515Z,23.07
2023-04-09T05:48:37.585Z,23.77
2023-04-09T05:51:04.535Z,21.53
2023-04-09T05:53:32.153Z,21.70
2023-04-09T05:55:59.176Z,22.43
2023-04-09T05:58:26.242Z,22.37
2023-04-09T06:00:53.134Z,22.30
2023-04-09T06:03:20.643Z,24.10
2023-04-09T06:05:48.479Z,23.73
2023-04-09T06:08:15.789Z,21.80
2023-04-09T06:10:42.771Z,22.40
2023-04-09T06:13:10.689Z,21.73
2023-04-09T06:15:40.618Z,23.57
2023-04-09T06:18:07.610Z,23.17
2023-04-09T06:20:34.839Z,22.53
2023-04-09T06:23:02.083Z,24.90
2023-04-09T06:25:29.123Z,27.80
2023-04-09T06:27:56.696Z,29.87
2023-04-09T06:30:23.635Z,27.47
2023-04-09T06:32:54.888Z,23.60
2023-04-09T06:35:23.356Z,26.93
2023-04-09T06:37:50.502Z,28.40
2023-04-09T06:40:18.157Z,29.03
2023-04-09T06:42:46.389Z,25.47
2023-04-09T06:45:13.327Z,25.83
2023-04-09T06:47:40.540Z,29.23
2023-04-09T06:50:08.481Z,28.20
2023-04-09T06:52:35.439Z,29.20
2023-04-09T06:55:02.402Z,27.27
2023-04-09T06:57:29.312Z,24.03
2023-04-09T06:59:56.579Z,22.67
2023-04-09T07:02:23.790Z,24.00
2023-04-09T07:04:51.298Z,21.03
2023-04-09T07:07:18.715Z,20.97
2023-04-09T07:09:46.130Z,20.03
2023-04-09T07:12:13.062Z,19.53
2023-04-09T07:14:40.252Z,18.70
2023-04-09T07:17:07.205Z,17.23
2023-04-09T07:19:34.175Z,16.98
2023-04-09T07:22:01.164Z,17.45
2023-04-09T07:24:28.097Z,16.88
2023-04-09T07:26:55.642Z,16.50
2023-04-09T07:29:22.673Z,15.98
2023-04-09T07:31:49.757Z,14.93
2023-04-09T07:34:17.031Z,15.30
2023-04-09T07:36:44.042Z,17.15
2023-04-09T07:39:11.178Z,16.60
2023-04-09T07:41:38.441Z,14.85
2023-04-09T07:44:06.495Z,16.05
2023-04-09T07:46:33.607Z,16.67
2023-04-09T07:49:00.756Z,15.95
2023-04-09T07:51:27.829Z,15.97
2023-04-09T07:53:54.829Z,16.40
2023-04-09T07:56:21.840Z,16.53
2023-04-09T07:58:49.446Z,15.63
2023-04-09T08:01:17.911Z,15.90
2023-04-09T08:03:45.689Z,15.10
2023-04-09T08:06:12.744Z,15.20
2023-04-09T08:08:40.061Z,12.52
2023-04-09T08:11:07.192Z,15.48
2023-04-09T08:13:34.361Z,14.20
2023-04-09T08:16:02.466Z,10.18
2023-04-09T08:18:29.995Z,15.02
2023-04-09T08:20:57.625Z,14.25
2023-04-09T08:23:24.631Z,13.23
2023-04-09T08:25:51.606Z,13.95
2023-04-09T08:28:18.623Z,13.93
2023-04-09T08:30:47.718Z,12.25
2023-04-09T08:33:15.395Z,13.98
2023-04-09T08:35:42.616Z,13.45
2023-04-09T08:38:10.005Z,11.23
2023-04-09T08:40:37.535Z,11.85
2023-04-09T08:43:10.562Z,12.52
2023-04-09T08:45:41.175Z,13.38
2023-04-09T08:48:11.048Z,8.05
2023-04-09T08:50:38.121Z,10.80
2023-04-09T08:53:10.854Z,11.35
2023-04-09T08:55:37.797Z,12.45
2023-04-09T08:58:07.536Z,11.75
2023-04-09T09:00:34.533Z,9.63
2023-04-09T09:03:08.507Z,9.55
2023-04-09T09:05:45.184Z,10.68
2023-04-09T09:08:26.852Z,9.93
2023-04-09T09:10:53.885Z,11.10
2023-04-09T09:13:25.967Z,11.95
2023-04-09T09:16:13.775Z,11.70
2023-04-09T09:18:44.319Z,5.80
2023-04-09T09:21:16.034Z,5.22
2023-04-09T09:23:44.293Z,9.95
2023-04-09T09:26:24.674Z,10.50
2023-04-09T09:28:52.986Z,9.82
2023-04-09T09:31:22.862Z,8.18
2023-04-09T09:33:51.280Z,9.50
2023-04-09T09:36:35.120Z,8.65
2023-04-09T09:39:10.741Z,5.53
2023-04-09T09:41:38.629Z,9.80
2023-04-09T09:44:07.488Z,9.80
2023-04-09T09:46:40.809Z,7.60
2023-04-09T09:49:09.205Z,7.32
2023-04-09T09:51:41.579Z,7.35
2023-04-09T09:54:10.726Z,8.23
2023-04-09T09:56:39.775Z,6.72
2023-04-09T09:59:23.948Z,8.02
2023-04-09T10:02:02.950Z,8.00
2023-04-09T10:04:35.834Z,6.57
2023-04-09T10:07:07.159Z,6.85
2023-04-09T10:09:39.530Z,6.35
2023-04-09T10:12:10.705Z,6.00
2023-04-09T10:14:39.641Z,7.03
2023-04-09T10:17:07.315Z,6.07
2023-04-09T10:19:44.693Z,5.60
2023-04-09T10:22:17.982Z,3.33
2023-04-09T10:24:47.495Z,5.93
2023-04-09T10:27:17.300Z,5.97
2023-04-09T10:29:48.476Z,6.88
2023-04-09T10:32:26.436Z,6.90
2023-04-09T10:34:58.522Z,7.05
2023-04-09T10:37:27.411Z,6.90
2023-04-09T10:39:54.932Z,7.10
2023-04-09T10:42:30.480Z,7.38
2023-04-09T10:45:15.117Z,5.65
2023-04-09T10:47:44.260Z,6.60
2023-04-09T10:50:29.353Z,6.38
2023-04-09T10:53:00.318Z,7.20
2023-04-09T10:55:38.905Z,7.00
2023-04-09T10:58:13.552Z,6.90
2023-04-09T11:00:51.751Z,3.80
2023-04-09T11:03:27.679Z,6.28
2023-04-09T11:06:11.238Z,6.32
2023-04-09T11:08:39.001Z,4.22
2023-04-09T11:11:06.214Z,6.80
2023-04-09T11:13:34.371Z,6.70
2023-04-09T11:16:06.777Z,6.10
2023-04-09T11:18:35.602Z,6.18
2023-04-09T11:21:04.582Z,6.70
2023-04-09T11:23:33.195Z,6.22
2023-04-09T11:26:01.855Z,5.38
2023-04-09T11:28:28.814Z,6.60
2023-04-09T11:30:55.790Z,6.53
2023-04-09T11:33:22.882Z,7.30
2023-04-09T11:35:51.454Z,4.28
2023-04-09T11:38:18.383Z,5.93
2023-04-09T11:40:48.684Z,5.80
2023-04-09T11:43:16.880Z,5.90
2023-04-09T11:45:44.888Z,5.50
2023-04-09T11:48:13.022Z,6.18
2023-04-09T11:50:40.708Z,5.88
2023-04-09T11:53:21.876Z,6.22
2023-04-09T11:55:53.583Z,5.72
2023-04-09T11:58:28.126Z,6.43
2023-04-09T12:00:57.994Z,5.65
2023-04-09T12:03:30.880Z,5.40
2023-04-09T12:06:03.655Z,5.90
2023-04-09T12:08:31.503Z,4.43
2023-04-09T12:11:12.928Z,4.82
2023-04-09T12:13:46.058Z,6.20
2023-04-09T12:16:14.684Z,6.38
2023-04-09T12:18:41.930Z,6.50
2023-04-09T12:21:09.017Z,6.07
2023-04-09T12:23:36.256Z,5.35
2023-04-09T12:26:03.249Z,6.13
2023-04-09T12:28:30.890Z,5.38
2023-04-09T12:30:59.426Z,5.63
2023-04-09T12:33:26.525Z,6.43
2023-04-09T12:35:53.557Z,6.50
2023-04-09T12:38:20.538Z,4.93
2023-04-09T12:40:47.488Z,6.45
2023-04-09T12:43:14.533Z,6.60
2023-04-09T12:45:41.601Z,6.40
2023-04-09T12:48:08.754Z,6.13
2023-04-09T12:50:35.837Z,6.13
2023-04-09T12:53:02.798Z,5.88
2023-04-09T12:55:29.692Z,5.50
2023-04-09T12:57:56.692Z,5.28
2023-04-09T13:00:23.729Z,6.10
2023-04-09T13:02:52.827Z,5.72
2023-04-09T13:05:20.063Z,6.18
2023-04-09T13:07:46.979Z,6.43
2023-04-09T13:10:14.008Z,6.28
2023-04-09T13:12:41.180Z,5.20
2023-04-09T13:15:08.377Z,5.82
2023-04-09T13:17:35.471Z,5.50
2023-04-09T13:20:03.813Z,5.47
2023-04-09T13:22:31.032Z,5.45
2023-04-09T13:24:58.043Z,5.53
2023-04-09T13:27:25.190Z,5.05
2023-04-09T13:29:52.166Z,5.05
2023-04-09T13:32:21.119Z,5.72
2023-04-09T13:34:48.170Z,5.22
2023-04-09T13:37:15.763Z,5.13
2023-04-09T13:39:44.148Z,5.53
2023-04-09T13:42:13.985Z,5.18
2023-04-09T13:44:44.677Z,5.72
2023-04-09T13:47:17.157Z,5.20
2023-04-09T13:49:44.447Z,5.70
2023-04-09T13:52:12.082Z,5.95
2023-04-09T13:54:39.025Z,5.95
2023-04-09T13:57:06.002Z,4.97
2023-04-09T13:59:32.906Z,5.35
2023-04-09T14:02:00.498Z,5.75
2023-04-09T14:04:27.711Z,4.68
2023-04-09T14:06:54.739Z,5.78
2023-04-09T14:09:21.771Z,5.82
2023-04-09T14:11:49.559Z,5.20
2023-04-09T14:14:16.786Z,5.40
2023-04-09T14:16:43.804Z,5.10
2023-04-09T14:19:10.973Z,3.72
2023-04-09T14:21:38.975Z,5.35
2023-04-09T14:24:06.368Z,5.70
2023-04-09T14:26:33.335Z,5.15
2023-04-09T14:29:00.614Z,4.93
2023-04-09T14:31:27.791Z,4.55
2023-04-09T14:33:54.850Z,4.78
2023-04-09T14:36:21.908Z,5.47
2023-04-09T14:38:49.410Z,5.03
2023-04-09T14:41:17.718Z,5.63
2023-04-09T14:43:44.880Z,2.95
2023-04-09T14:46:12.297Z,4.28
2023-04-09T14:48:40.124Z,5.13
2023-04-09T14:51:10.936Z,5.82
2023-04-09T14:53:38.362Z,5.07
2023-04-09T14:56:05.990Z,5.22
2023-04-09T14:58:32.926Z,6.13
2023-04-09T15:00:59.789Z,5.65
2023-04-09T15:03:26.835Z,5.53
2023-04-09T15:05:53.926Z,5.07
2023-04-09T15:08:20.992Z,5.60
2023-04-09T15:10:47.927Z,5.47
2023-04-09T15:13:14.911Z,4.78
2023-04-09T15:15:44.244Z,4.43
2023-04-09T15:18:11.301Z,4.10
2023-04-09T15:20:43.657Z,4.85
2023-04-09T15:23:11.283Z,4.40
2023-04-09T15:25:38.959Z,4.85
2023-04-09T15:28:06.718Z,4.90
2023-04-09T15:30:35.388Z,4.38
2023-04-09T15:33:02.486Z,4.65
2023-04-09T15:35:29.602Z,4.90
2023-04-09T15:37:57.379Z,4.70
2023-04-09T15:40:24.762Z,4.25
2023-04-09T15:42:51.943Z,3.65
2023-04-09T15:45:19.041Z,4.63
2023-04-09T15:47:46.621Z,4.47
2023-04-09T15:50:14.602Z,4.65
2023-04-09T15:52:41.710Z,4.20
2023-04-09T15:55:09.457Z,4.40
2023-04-09T15:57:36.609Z,5.05
2023-04-09T16:00:04.386Z,3.97
2023-04-09T16:02:31.402Z,3.70
2023-04-09T16:04:58.485Z,4.55
2023-04-09T16:07:25.731Z,4.65
2023-04-09T16:09:52.774Z,3.55
2023-04-09T16:12:19.838Z,3.28
2023-04-09T16:14:46.777Z,4.68
2023-04-09T16:17:13.773Z,4.35
2023-04-09T16:19:41.915Z,4.95
2023-04-09T16:22:09.749Z,4.03
2023-04-09T16:24:36.869Z,4.85
2023-04-09T16:27:04.004Z,4.90
2023-04-09T16:29:31.157Z,4.75
2023-04-09T16:31:58.212Z,4.60
2023-04-09T16:34:25.321Z,4.30
2023-04-09T16:36:52.415Z,4.32
2023-04-09T16:39:19.947Z,4.40
2023-04-09T16:41:46.867Z,4.65
2023-04-09T16:44:14.035Z,4.93
2023-04-09T16:46:41.165Z,4.80
2023-04-09T16:49:08.408Z,5.53
2023-04-09T16:51:35.829Z,5.25
2023-04-09T16:54:03.129Z,5.63
2023-04-09T16:56:30.188Z,5.28
2023-04-09T16:58:57.106Z,4.93
2023-04-09T17:01:24.255Z,5.00
2023-04-09T17:03:51.441Z,4.60
2023-04-09T17:06:18.494Z,4.30
2023-04-09T17:08:46.403Z,4.30
2023-04-09T17:11:17.777Z,4.65
2023-04-09T17:13:45.040Z,4.82
2023-04-09T17:16:12.697Z,4.93
2023-04-09T17:18:39.765Z,4.28
2023-04-09T17:21:07.322Z,5.07
2023-04-09T17:23:34.268Z,4.43
2023-04-09T17:26:02.253Z,4.70
2023-04-09T17:28:29.492Z,4.70
2023-04-09T17:30:56.609Z,4.85
2023-04-09T17:33:23.667Z,4.75
2023-04-09T17:35:50.919Z,4.70
2023-04-09T17:38:21.309Z,4.80
2023-04-09T17:40:48.471Z,4.53
2023-04-09T17:43:15.691Z,5.07
2023-04-09T17:45:42.646Z,5.50
2023-04-09T17:48:09.817Z,5.35
2023-04-09T17:50:40.146Z,6.35
2023-04-09T17:53:07.694Z,5.43
2023-04-09T17:55:34.655Z,6.15
2023-04-09T17:58:01.596Z,12.27
2023-04-09T18:00:28.761Z,19.20
2023-04-09T18:02:57.633Z,22.30
2023-04-09T18:05:26.092Z,28.90
2023-04-09T18:07:54.954Z,32.63
2023-04-09T18:10:22.586Z,28.48
2023-04-09T18:12:49.591Z,24.98
2023-04-09T18:15:18.705Z,24.08
2023-04-09T18:17:46.303Z,28.02
2023-04-09T18:20:15.397Z,24.42
2023-04-09T18:22:43.678Z,27.63
2023-04-09T18:25:11.531Z,25.05
2023-04-09T18:27:38.523Z,22.50
2023-04-09T18:30:06.426Z,16.98
2023-04-09T18:32:33.643Z,21.75
2023-04-09T18:35:01.033Z,22.95
2023-04-09T18:37:28.031Z,23.77
2023-04-09T18:39:55.181Z,23.38
2023-04-09T18:42:22.144Z,26.73
2023-04-09T18:44:49.092Z,27.02
2023-04-09T18:47:16.510Z,26.70
2023-04-09T18:49:43.542Z,29.10
2023-04-09T18:52:10.817Z,35.80
2023-04-09T18:54:38.926Z,52.00
2023-04-09T18:57:06.589Z,40.37
2023-04-09T18:59:35.112Z,46.87
2023-04-09T19:02:06.035Z,31.48
2023-04-09T19:04:39.817Z,24.00
2023-04-09T19:07:07.564Z,20.73
2023-04-09T19:09:34.939Z,22.07
2023-04-09T19:12:02.121Z,25.03
2023-04-09T19:14:29.382Z,26.70
2023-04-09T19:16:57.147Z,24.50
2023-04-09T19:19:24.246Z,20.93
2023-04-09T19:21:51.347Z,22.33
2023-04-09T19:24:18.317Z,22.57
2023-04-09T19:26:45.338Z,17.90
2023-04-09T19:29:12.277Z,8.80
2023-04-09T19:31:39.355Z,9.30
2023-04-09T19:34:06.481Z,9.67
2023-04-09T19:36:34.085Z,11.77
2023-04-09T19:39:01.348Z,10.03
2023-04-09T19:41:28.449Z,10.63
2023-04-09T19:43:55.626Z,12.10
2023-04-09T19:46:22.645Z,19.10
2023-04-09T19:48:49.639Z,25.40
2023-04-09T19:51:21.968Z,31.63
2023-04-09T19:53:49.318Z,16.27
2023-04-09T19:56:16.480Z,18.93
2023-04-09T19:58:44.338Z,26.20
2023-04-09T20:01:11.513Z,26.37
2023-04-09T20:03:38.783Z,23.53
2023-04-09T20:06:10.458Z,24.07
2023-04-09T20:08:38.122Z,19.03
2023-04-09T20:11:05.628Z,15.23
2023-04-09T20:13:33.397Z,15.33
2023-04-09T20:16:00.759Z,18.50
2023-04-09T20:18:28.688Z,22.47
2023-04-09T20:20:55.703Z,28.03
2023-04-09T20:23:22.785Z,30.30
2023-04-09T20:25:54.986Z,33.77
2023-04-09T20:28:22.166Z,29.83
2023-04-09T20:30:49.432Z,31.80
2023-04-09T20:33:18.141Z,33.33
2023-04-09T20:35:45.578Z,35.47
2023-04-09T20:38:12.694Z,35.50
2023-04-09T20:40:39.639Z,29.03
2023-04-09T20:43:06.769Z,30.27
2023-04-09T20:45:33.876Z,29.93
2023-04-09T20:48:01.574Z,27.00
2023-04-09T20:50:28.964Z,26.43
2023-04-09T20:52:56.075Z,27.50
2023-04-09T20:55:24.167Z,28.43
2023-04-09T20:57:51.970Z,28.53
2023-04-09T21:00:19.047Z,24.40
2023-04-09T21:02:46.365Z,25.40
2023-04-09T21:05:22.832Z,25.53
2023-04-09T21:07:52.498Z,23.20
2023-04-09T21:10:20.056Z,21.87
2023-04-09T21:12:47.079Z,22.70
2023-04-09T21:15:14.187Z,24.27
2023-04-09T21:17:41.256Z,25.00
2023-04-09T21:20:08.911Z,23.77
2023-04-09T21:22:36.203Z,21.03
2023-04-09T21:25:03.685Z,21.80
2023-04-09T21:27:31.241Z,22.30
2023-04-09T21:29:58.832Z,21.23
2023-04-09T21:32:25.869Z,22.77
2023-04-09T21:34:53.517Z,26.67
2023-04-09T21:37:20.469Z,26.67
2023-04-09T21:39:48.843Z,22.53
2023-04-09T21:42:16.010Z,19.00
2023-04-09T21:44:42.965Z,21.20
2023-04-09T21:47:11.991Z,21.40
2023-04-09T21:49:40.456Z,20.17
2023-04-09T21:52:14.297Z,20.03
2023-04-09T21:54:43.399Z,20.43
2023-04-09T21:57:13.529Z,21.93
2023-04-09T21:59:41.329Z,22.97
2023-04-09T22:02:09.489Z,22.50
2023-04-09T22:04:36.635Z,19.83
2023-04-09T22:07:04.138Z,19.20
2023-04-09T22:09:31.808Z,19.53
2023-04-09T22:11:59.694Z,17.87
2023-04-09T22:14:29.530Z,18.97
2023-04-09T22:16:58.463Z,18.87
2023-04-09T22:19:26.757Z,22.83
2023-04-09T22:21:54.477Z,23.83
2023-04-09T22:24:30.161Z,20.83
2023-04-09T22:26:59.031Z,17.27
2023-04-09T22:29:27.771Z,20.07
2023-04-09T22:31:55.847Z,23.30
2023-04-09T22:34:22.892Z,23.67
2023-04-09T22:36:49.996Z,22.90
2023-04-09T22:39:17.183Z,19.97
2023-04-09T22:41:44.176Z,19.70
2023-04-09T22:44:11.233Z,21.37
2023-04-09T22:46:38.265Z,19.80
2023-04-09T22:49:06.292Z,22.10
2023-04-09T22:51:34.748Z,23.13
2023-04-09T22:54:02.607Z,22.80
2023-04-09T22:56:31.868Z,21.73
2023-04-09T22:58:59.366Z,21.57
2023-04-09T23:01:27.223Z,19.23
2023-04-09T23:03:54.885Z,19.43
2023-04-09T23:06:22.728Z,17.80
2023-04-09T23:08:50.649Z,18.13
2023-04-09T23:11:17.700Z,18.37
2023-04-09T23:13:44.760Z,17.40
2023-04-09T23:16:12.012Z,17.17
2023-04-09T23:18:39.285Z,16.33
2023-04-09T23:21:11.295Z,17.37
2023-04-09T23:23:39.396Z,17.20
2023-04-09T23:26:06.967Z,18.37
2023-04-09T23:28:34.204Z,17.77
2023-04-09T23:31:01.337Z,17.67
2023-04-09T23:33:28.375Z,18.93
2023-04-09T23:35:55.563Z,18.40
2023-04-09T23:38:22.639Z,20.60
2023-04-09T23:40:49.921Z,20.27
2023-04-09T23:43:17.153Z,22.07
2023-04-09T23:45:45.019Z,22.00
2023-04-09T23:48:12.696Z,19.77
2023-04-09T23:50:41.673Z,21.83
2023-04-09T23:53:08.938Z,23.07
2023-04-09T23:55:41.155Z,20.57
2023-04-09T23:58:09.804Z,21.50
